MMMX/MEX METAR and TAF weather

Enter ICAO airport designator
Station Type Date Time Source
MMMX METAR 2022/06/30 01:47 UTC NOAA

MMMX 300147Z 04015KT 10SM BKN025 BKN250 20/09 A3038 NOSIG RMK 8/408 DSNT CB 2ND 3TH QUAD AC


Station Type Date Time Source
MMMX Decoded METAR 2022/06/30 01:47 UTC NOAA

Mexico City / Licenci, Mexico (MMMX) 19-26N 099-06W
Jun 29, 2022 - 09:47 PM EDT / 2022.06.30 0147 UTC
Wind: from the NE (040 degrees) at 17 MPH (15 KT):0
Visibility: 10 mile(s):0
Sky conditions: mostly cloudy
Weather: Cumulonimbus clouds observed
Temperature: 68 F (20 C)
Dew Point: 48 F (9 C)
Relative Humidity: 49%
Pressure (altimeter): 30.38 in. Hg (1028 hPa)
ob: MMMX 300147Z 04015KT 10SM BKN025 BKN250 20/09 A3038 NOSIG RMK 8/408 DSNT CB 2ND 3TH QUAD AC
cycle: 2

Station Type Date Time Source
MMMX TAF 2022/06/29 18:37 UTC NOAA

TAF MMMX 291629Z 2918/3024 04012KT P6SM SCT020 BKN080 BKN250 TX24/2921Z TN13/3012Z PROB40 2923/3003 6SM -RA BKN020CB
FM300600 34005KT P6SM SCT020 SCT080
FM301800 03012KT P6SM SCT020 BKN080 BKN250

Example: see airport list